Time;durP1;ratioP1;P1;durP2;ratioP2;P2;SDS_P1;SDS_P2;PMS_P1;PMS_P2;Temp;Humidity;BMP_temperature;BMP_pressure;BME280_temperature;BME280_humidity;BME280_pressure;Samples;Min_cycle;Max_cycle;Signal;HPM_P1;HPM_P2
2021/01/02 00:02:34;;;;;;;12.98;6.80;;;3.10;99.90;;;;;;5019461;28;20113;-76
2021/01/02 00:05:10;;;;;;;14.55;6.97;;;3.10;99.90;;;;;;5019478;28;20030;-76
2021/01/02 00:08:09;;;;;;;14.43;7.40;;;3.10;99.90;;;;;;5017567;28;20025;-76
2021/01/02 00:10:47;;;;;;;17.42;7.18;;;3.00;99.90;;;;;;5017712;28;20026;-76
2021/01/02 00:13:31;;;;;;;12.75;6.95;;;3.00;99.90;;;;;;5019280;28;20124;-76
2021/01/02 00:16:08;;;;;;;13.55;7.15;;;3.00;99.90;;;;;;5018396;28;20030;-76
2021/01/02 00:18:45;;;;;;;16.38;7.03;;;3.00;99.90;;;;;;5050741;28;20117;-76
2021/01/02 00:21:25;;;;;;;13.02;6.95;;;3.00;99.90;;;;;;5033501;28;20432;-75
2021/01/02 00:23:57;;;;;;;17.08;7.55;;;2.90;99.90;;;;;;5052288;28;20192;-75
2021/01/02 00:26:44;;;;;;;14.18;7.40;;;2.90;99.90;;;;;;5039095;28;20456;-76
2021/01/02 00:29:23;;;;;;;14.65;6.82;;;2.90;99.90;;;;;;5026086;28;20113;-77
2021/01/02 00:32:12;;;;;;;13.63;6.72;;;2.90;99.90;;;;;;5026152;28;20029;-74
2021/01/02 00:34:56;;;;;;;18.23;8.93;;;2.80;99.90;;;;;;5038267;28;20045;-76
2021/01/02 00:37:40;;;;;;;15.38;7.00;;;2.80;99.90;;;;;;4679369;28;10000001;-76
2021/01/02 00:40:09;;;;;;;14.77;6.72;;;2.80;99.90;;;;;;5024573;28;20456;-76
2021/01/02 00:42:36;;;;;;;10.65;5.60;;;2.70;99.90;;;;;;5055628;28;20095;-76
2021/01/02 00:45:05;;;;;;;15.27;6.28;;;2.70;99.90;;;;;;5023580;28;20090;-76
2021/01/02 00:47:38;;;;;;;13.48;6.57;;;2.70;99.90;;;;;;5025195;28;20399;-76
2021/01/02 00:50:05;;;;;;;14.55;6.70;;;2.70;99.90;;;;;;5021806;28;20030;-76
2021/01/02 00:52:48;;;;;;;13.68;6.63;;;2.70;99.90;;;;;;5056074;28;20029;-76
2021/01/02 00:55:50;;;;;;;14.52;6.10;;;2.70;99.90;;;;;;5055838;28;20063;-76
2021/01/02 00:59:00;;;;;;;11.57;5.75;;;2.70;99.90;;;;;;5023908;28;20029;-76
2021/01/02 01:01:35;;;;;;;12.10;6.28;;;2.70;99.90;;;;;;5026588;28;20133;-76
2021/01/02 01:04:36;;;;;;;11.90;5.43;;;2.60;99.90;;;;;;5040942;28;20048;-76
2021/01/02 01:07:04;;;;;;;13.32;5.93;;;2.70;99.90;;;;;;5037322;28;20045;-75
2021/01/02 01:09:38;;;;;;;11.57;5.53;;;2.60;99.90;;;;;;5025079;28;20036;-76
2021/01/02 01:12:04;;;;;;;12.90;6.03;;;2.70;99.90;;;;;;5040345;28;20601;-76
2021/01/02 01:14:30;;;;;;;12.25;5.53;;;2.70;99.90;;;;;;5010158;28;20038;-76
2021/01/02 01:16:59;;;;;;;10.73;5.97;;;2.60;99.90;;;;;;5041212;28;20067;-76
2021/01/02 01:19:30;;;;;;;11.00;5.32;;;2.60;99.90;;;;;;5039450;28;20108;-76
2021/01/02 01:21:58;;;;;;;10.98;5.50;;;2.60;99.90;;;;;;5026281;28;20057;-76
2021/01/02 01:24:43;;;;;;;13.48;6.15;;;2.60;99.90;;;;;;5040771;28;20135;-76
2021/01/02 01:27:19;;;;;;;11.32;5.43;;;2.60;99.90;;;;;;5026419;28;20037;-76
2021/01/02 01:29:47;;;;;;;9.32;5.13;;;2.60;99.90;;;;;;5024650;28;20034;-76
2021/01/02 01:32:18;;;;;;;12.95;5.72;;;2.60;99.90;;;;;;5024031;28;20053;-76
2021/01/02 01:34:49;;;;;;;10.43;5.05;;;2.60;99.90;;;;;;5057912;28;20163;-76
2021/01/02 01:37:18;;;;;;;12.50;5.65;;;2.60;99.90;;;;;;5056008;28;20063;-76
2021/01/02 01:39:50;;;;;;;12.52;5.07;;;2.60;99.90;;;;;;5057339;28;20041;-76
2021/01/02 01:42:18;;;;;;;11.00;4.78;;;2.70;99.90;;;;;;5040692;28;20036;-76
2021/01/02 01:44:56;;;;;;;8.75;4.53;;;2.70;99.90;;;;;;5026524;28;20508;-76
2021/01/02 01:47:25;;;;;;;10.68;4.70;;;2.70;99.90;;;;;;5026942;28;20038;-76
2021/01/02 01:49:57;;;;;;;12.10;5.25;;;2.70;99.90;;;;;;5026996;28;20040;-76
2021/01/02 01:52:47;;;;;;;6.50;3.50;;;2.70;99.90;;;;;;5025518;28;20033;-76
2021/01/02 01:55:16;;;;;;;9.82;4.18;;;2.70;99.90;;;;;;5055111;28;20115;-76
2021/01/02 01:57:42;;;;;;;8.60;4.82;;;2.70;99.90;;;;;;5024889;28;20501;-76
2021/01/02 02:00:11;;;;;;;9.35;4.55;;;2.70;99.90;;;;;;5025688;28;20026;-76
2021/01/02 02:02:37;;;;;;;9.77;4.60;;;2.70;99.90;;;;;;5027412;28;20025;-76
2021/01/02 02:05:08;;;;;;;10.20;4.60;;;2.70;99.90;;;;;;5027894;28;20025;-76
2021/01/02 02:08:08;;;;;;;7.85;4.13;;;2.70;99.90;;;;;;5027215;28;20030;-76
2021/01/02 02:10:36;;;;;;;10.90;4.35;;;2.70;99.90;;;;;;5038733;28;20076;-76
2021/01/02 02:13:19;;;;;;;9.73;4.43;;;2.70;99.90;;;;;;5059259;28;20052;-76
2021/01/02 02:15:48;;;;;;;7.97;4.03;;;2.70;99.90;;;;;;5026534;28;20025;-76
2021/01/02 02:18:23;;;;;;;7.88;4.05;;;2.70;99.90;;;;;;5026659;28;20021;-76
2021/01/02 02:21:04;;;;;;;8.23;4.20;;;2.70;99.90;;;;;;5057991;28;20049;-76
2021/01/02 02:23:56;;;;;;;10.15;4.72;;;2.70;99.90;;;;;;5025040;28;20034;-76
2021/01/02 02:26:33;;;;;;;7.80;3.97;;;2.70;99.90;;;;;;5025281;28;20134;-76
2021/01/02 02:29:14;;;;;;;9.20;4.07;;;2.70;99.90;;;;;;5058280;28;20032;-75
2021/01/02 02:31:44;;;;;;;9.30;4.05;;;2.70;99.90;;;;;;5056849;28;20073;-76
2021/01/02 02:34:10;;;;;;;7.47;3.88;;;2.70;99.90;;;;;;5058093;28;20087;-76
2021/01/02 02:36:43;;;;;;;8.73;4.57;;;2.70;99.90;;;;;;5024670;28;20487;-76
2021/01/02 02:39:13;;;;;;;9.35;4.30;;;2.80;99.90;;;;;;5026496;28;20021;-76
2021/01/02 02:41:54;;;;;;;10.23;4.40;;;2.80;99.90;;;;;;5022098;28;20041;-75
2021/01/02 02:44:35;;;;;;;8.02;4.15;;;2.80;99.90;;;;;;5024321;28;20103;-76
2021/01/02 02:47:01;;;;;;;9.05;4.50;;;2.80;99.90;;;;;;5024505;28;20022;-76
2021/01/02 02:49:33;;;;;;;7.75;3.85;;;2.80;99.90;;;;;;5041259;28;20350;-76
2021/01/02 02:52:33;;;;;;;9.55;4.13;;;2.80;99.90;;;;;;5023249;28;20140;-76
2021/01/02 02:54:59;;;;;;;7.80;3.30;;;2.80;99.90;;;;;;5023821;28;20041;-76
2021/01/02 02:57:30;;;;;;;7.07;3.40;;;2.80;99.90;;;;;;5023970;28;20159;-76
2021/01/02 02:59:57;;;;;;;5.67;3.03;;;2.80;99.90;;;;;;5041237;28;20021;-76
2021/01/02 03:02:22;;;;;;;8.40;4.07;;;2.80;99.90;;;;;;5022586;28;20060;-76
2021/01/02 03:04:51;;;;;;;11.32;3.42;;;2.70;99.90;;;;;;5024487;28;20030;-76
2021/01/02 03:07:16;;;;;;;7.82;3.88;;;2.70;99.90;;;;;;5037891;28;20032;-76
2021/01/02 03:09:42;;;;;;;7.57;3.45;;;2.70;99.90;;;;;;5024622;28;20033;-76
2021/01/02 03:12:10;;;;;;;7.55;3.50;;;2.70;99.90;;;;;;5023341;28;20037;-76
2021/01/02 03:14:36;;;;;;;6.50;3.15;;;2.70;99.90;;;;;;5025020;28;20025;-76
2021/01/02 03:17:01;;;;;;;7.30;3.63;;;2.70;99.90;;;;;;5025067;28;20032;-76
2021/01/02 03:19:34;;;;;;;7.00;3.20;;;2.80;99.90;;;;;;5055043;28;20105;-76
2021/01/02 03:21:59;;;;;;;6.50;3.47;;;2.70;99.90;;;;;;5056022;28;20362;-76
2021/01/02 03:24:26;;;;;;;6.82;3.70;;;2.70;99.90;;;;;;5026190;28;20033;-76
2021/01/02 03:26:56;;;;;;;6.45;3.00;;;2.70;99.90;;;;;;5022518;28;20036;-76
2021/01/02 03:29:23;;;;;;;7.47;3.63;;;2.80;99.90;;;;;;5025058;28;20033;-76
2021/01/02 03:31:48;;;;;;;8.02;3.00;;;2.70;99.90;;;;;;5024987;28;20025;-76
2021/01/02 03:34:18;;;;;;;6.88;3.20;;;2.70;99.90;;;;;;5024846;28;20052;-76
2021/01/02 03:36:46;;;;;;;9.32;4.28;;;2.80;99.90;;;;;;5023112;28;20151;-70
2021/01/02 03:39:12;;;;;;;9.13;4.50;;;2.70;99.90;;;;;;4692746;28;10000256;-71
2021/01/02 03:41:40;;;;;;;8.65;4.43;;;2.80;99.90;;;;;;5022887;28;20037;-71
2021/01/02 03:44:05;;;;;;;11.40;5.10;;;2.80;99.90;;;;;;5039238;28;20040;-71
2021/01/02 03:46:31;;;;;;;11.00;4.38;;;2.80;99.90;;;;;;5024550;28;20033;-71
2021/01/02 03:48:57;;;;;;;8.85;4.35;;;2.80;99.90;;;;;;5024007;28;20032;-70
2021/01/02 03:51:23;;;;;;;8.50;4.57;;;2.80;99.90;;;;;;5023222;28;20021;-71
2021/01/02 03:53:49;;;;;;;9.82;4.32;;;2.80;99.90;;;;;;5023539;28;20491;-71
2021/01/02 03:56:15;;;;;;;13.70;5.00;;;2.70;99.90;;;;;;5023192;28;20034;-72
2021/01/02 03:58:45;;;;;;;9.57;4.72;;;2.70;99.90;;;;;;5024819;28;20606;-71
2021/01/02 04:01:14;;;;;;;12.65;5.20;;;2.70;99.90;;;;;;5055539;28;20026;-71
2021/01/02 04:03:40;;;;;;;10.20;4.85;;;2.60;99.90;;;;;;5040862;28;20109;-71
2021/01/02 04:06:06;;;;;;;10.70;5.10;;;2.60;99.90;;;;;;5023445;28;20558;-71
2021/01/02 04:08:32;;;;;;;9.52;4.50;;;2.50;99.90;;;;;;5024287;28;20063;-71
2021/01/02 04:10:57;;;;;;;9.73;5.07;;;2.60;99.90;;;;;;5024550;28;20652;-71
2021/01/02 04:13:23;;;;;;;11.65;5.55;;;2.60;99.90;;;;;;5024475;28;20040;-72
2021/01/02 04:15:49;;;;;;;10.73;5.10;;;2.50;99.90;;;;;;5037291;28;20032;-71
2021/01/02 04:18:15;;;;;;;12.10;5.18;;;2.50;99.90;;;;;;5024196;28;20612;-71
2021/01/02 04:20:43;;;;;;;10.30;4.78;;;2.50;99.90;;;;;;5020948;28;20067;-71
2021/01/02 04:23:08;;;;;;;9.52;4.93;;;2.60;99.90;;;;;;5023627;28;20061;-71
2021/01/02 04:25:34;;;;;;;10.05;4.88;;;2.60;99.90;;;;;;5023475;28;20061;-71
2021/01/02 04:27:59;;;;;;;10.50;4.60;;;2.60;99.90;;;;;;5024271;28;20447;-71
2021/01/02 04:30:27;;;;;;;11.32;5.53;;;2.60;99.90;;;;;;5022091;28;20463;-71
2021/01/02 04:32:53;;;;;;;10.18;4.72;;;2.60;99.90;;;;;;5023788;28;20072;-71
2021/01/02 04:35:18;;;;;;;10.88;5.43;;;2.60;99.90;;;;;;5022671;28;20053;-71
2021/01/02 04:37:44;;;;;;;11.18;4.97;;;2.60;99.90;;;;;;5022920;28;20044;-70
2021/01/02 04:40:12;;;;;;;11.50;5.32;;;2.60;99.90;;;;;;5024646;28;20518;-71
2021/01/02 04:42:39;;;;;;;9.82;4.60;;;2.60;99.90;;;;;;5024141;28;20057;-71
2021/01/02 04:45:06;;;;;;;9.55;4.60;;;2.60;99.90;;;;;;5024188;28;20034;-71
2021/01/02 04:47:31;;;;;;;8.55;4.47;;;2.60;99.90;;;;;;5036153;28;20076;-71
2021/01/02 04:49:58;;;;;;;9.00;4.50;;;2.70;99.90;;;;;;5023320;28;20061;-71
2021/01/02 04:52:24;;;;;;;11.07;5.13;;;2.60;99.90;;;;;;5007927;28;20038;-72
2021/01/02 04:54:57;;;;;;;11.20;5.07;;;2.70;99.90;;;;;;5022314;28;20100;-71
2021/01/02 04:57:25;;;;;;;11.20;4.82;;;2.70;99.90;;;;;;5054933;28;20025;-71
2021/01/02 04:59:51;;;;;;;9.45;4.35;;;2.70;99.90;;;;;;5022123;28;20465;-71
2021/01/02 05:02:22;;;;;;;10.45;5.07;;;2.70;99.90;;;;;;5023905;28;20026;-71
2021/01/02 05:04:48;;;;;;;10.93;4.90;;;2.70;99.90;;;;;;5055110;28;20026;-71
2021/01/02 05:07:24;;;;;;;9.95;4.95;;;2.60;99.90;;;;;;5025577;28;20482;-71
2021/01/02 05:09:50;;;;;;;12.70;5.75;;;2.60;99.90;;;;;;5058286;28;20036;-71
2021/01/02 05:12:32;;;;;;;11.60;5.65;;;2.60;99.90;;;;;;5058844;28;20029;-71
2021/01/02 05:15:02;;;;;;;11.18;5.07;;;2.60;99.90;;;;;;5040262;28;20246;-71
2021/01/02 05:17:28;;;;;;;10.75;5.60;;;2.50;99.90;;;;;;5040264;28;20118;-72
2021/01/02 05:20:20;;;;;;;11.07;5.18;;;2.50;99.90;;;;;;5028184;28;20041;-71
2021/01/02 05:22:47;;;;;;;8.55;4.55;;;2.50;99.90;;;;;;5025058;28;20128;-71
2021/01/02 05:25:18;;;;;;;12.07;5.68;;;2.50;99.90;;;;;;5028474;28;20040;-72
2021/01/02 05:27:49;;;;;;;9.00;4.80;;;2.50;99.90;;;;;;5058514;28;20029;-72
2021/01/02 05:30:19;;;;;;;9.27;5.18;;;2.50;99.90;;;;;;5058980;28;20017;-72
2021/01/02 05:33:01;;;;;;;9.75;4.50;;;2.50;99.90;;;;;;5040654;28;20102;-71
2021/01/02 05:35:35;;;;;;;6.57;3.37;;;2.50;99.90;;;;;;5025100;28;20029;-71
2021/01/02 05:38:14;;;;;;;8.18;4.35;;;2.50;99.90;;;;;;5026802;28;20029;-71
2021/01/02 05:40:59;;;;;;;11.10;4.90;;;2.60;99.90;;;;;;5026938;28;20048;-71
2021/01/02 05:43:30;;;;;;;11.75;5.40;;;2.60;99.90;;;;;;5026102;28;20033;-71
2021/01/02 05:45:56;;;;;;;9.88;4.90;;;2.60;99.90;;;;;;5028092;28;20030;-72
2021/01/02 05:48:26;;;;;;;9.75;4.45;;;2.50;99.90;;;;;;5027281;28;20049;-71
2021/01/02 05:51:01;;;;;;;7.25;3.53;;;2.60;99.90;;;;;;5025405;28;20029;-71
2021/01/02 05:53:30;;;;;;;7.93;3.75;;;2.60;99.90;;;;;;5058011;28;20057;-71
2021/01/02 05:56:11;;;;;;;7.25;3.20;;;2.60;99.90;;;;;;5027030;28;20034;-71
2021/01/02 05:58:44;;;;;;;8.13;3.65;;;2.60;99.90;;;;;;5025750;28;20549;-71
2021/01/02 06:01:09;;;;;;;;;;;2.50;99.90;;;;;;5025782;28;20458;-70
2021/01/02 06:03:36;;;;;;;5.60;2.90;;;2.50;99.90;;;;;;5040609;28;19992;-71
2021/01/02 06:06:06;;;;;;;5.18;2.83;;;2.50;99.90;;;;;;5025765;28;20033;-71
2021/01/02 06:08:52;;;;;;;6.57;3.22;;;2.50;99.90;;;;;;5059154;28;20029;-71
2021/01/02 06:11:19;;;;;;;6.88;3.03;;;2.50;99.90;;;;;;5025605;28;20022;-71
2021/01/02 06:13:52;;;;;;;6.35;3.05;;;2.50;99.90;;;;;;5024976;28;20021;-71
2021/01/02 06:16:18;;;;;;;;;;;2.50;99.90;;;;;;5038454;28;20470;-70
2021/01/02 06:18:45;;;;;;;6.00;2.95;;;2.50;99.90;;;;;;5056424;28;20212;-72
2021/01/02 06:21:14;;;;;;;6.05;2.92;;;2.50;99.90;;;;;;5023521;28;20075;-71
2021/01/02 06:23:44;;;;;;;6.00;2.60;;;2.50;99.90;;;;;;5024717;28;20250;-71
2021/01/02 06:26:11;;;;;;;6.03;3.00;;;2.50;99.90;;;;;;5026644;28;20032;-71
2021/01/02 06:28:42;;;;;;;6.32;2.85;;;2.50;99.90;;;;;;5025170;28;20029;-71
2021/01/02 06:31:12;;;;;;;6.90;3.13;;;2.50;99.90;;;;;;5026452;28;20037;-71
2021/01/02 06:33:47;;;;;;;6.20;3.00;;;2.50;99.90;;;;;;5059782;28;20029;-72
2021/01/02 06:36:33;;;;;;;7.13;3.10;;;2.50;99.90;;;;;;5058827;28;20049;-71
2021/01/02 06:39:27;;;;;;;6.38;2.95;;;2.50;99.90;;;;;;5025352;28;20478;-72
2021/01/02 06:41:54;;;;;;;4.97;2.75;;;2.40;99.90;;;;;;5024666;28;20111;-72
2021/01/02 06:44:39;;;;;;;5.63;2.50;;;2.40;99.90;;;;;;5059310;28;20034;-71
2021/01/02 06:47:15;;;;;;;7.07;2.50;;;2.40;99.90;;;;;;5027313;28;20083;-71
2021/01/02 06:49:41;;;;;;;4.85;2.38;;;2.40;99.90;;;;;;5004864;28;20033;-71
2021/01/02 06:52:06;;;;;;;5.22;2.67;;;2.40;99.90;;;;;;5041829;28;20059;-71
2021/01/02 06:54:32;;;;;;;6.38;2.60;;;2.40;99.90;;;;;;5024898;28;20040;-71
2021/01/02 06:57:04;;;;;;;6.20;2.80;;;2.40;99.90;;;;;;5027230;28;20026;-71
2021/01/02 06:59:32;;;;;;;5.15;2.40;;;2.40;99.90;;;;;;5024845;28;20108;-71
2021/01/02 07:01:58;;;;;;;5.35;2.75;;;2.40;99.90;;;;;;5056382;28;20049;-71
2021/01/02 07:04:37;;;;;;;4.85;2.20;;;2.40;99.90;;;;;;5055919;28;20454;-71
2021/01/02 07:07:04;;;;;;;4.68;2.17;;;2.40;99.90;;;;;;5024099;28;20048;-72
2021/01/02 07:09:30;;;;;;;5.30;2.50;;;2.40;99.90;;;;;;5055408;28;20029;-71
2021/01/02 07:12:27;;;;;;;5.55;2.70;;;2.40;99.90;;;;;;5025046;28;20017;-72
2021/01/02 07:14:53;;;;;;;4.93;2.42;;;2.40;99.90;;;;;;5016479;28;20098;-71
2021/01/02 07:17:22;;;;;;;4.82;2.42;;;2.40;99.90;;;;;;5040469;28;20526;-72
2021/01/02 07:19:48;;;;;;;5.03;2.45;;;2.40;99.90;;;;;;5056858;28;20096;-72
2021/01/02 07:22:20;;;;;;;5.05;2.45;;;2.40;99.90;;;;;;5022998;28;20120;-71
2021/01/02 07:24:47;;;;;;;3.75;1.88;;;2.40;99.90;;;;;;5024401;28;20033;-71
2021/01/02 07:27:14;;;;;;;5.10;2.70;;;2.40;99.90;;;;;;5025120;28;20489;-71
2021/01/02 07:29:45;;;;;;;5.65;2.40;;;2.40;99.90;;;;;;5025481;28;20120;-71
2021/01/02 07:32:12;;;;;;;6.32;2.58;;;2.30;99.90;;;;;;5025645;28;20456;-71
2021/01/02 07:34:40;;;;;;;4.40;2.20;;;2.40;99.90;;;;;;5024363;28;20060;-71
2021/01/02 07:37:14;;;;;;;5.70;2.38;;;2.40;99.90;;;;;;5025014;28;20117;-71
2021/01/02 07:39:55;;;;;;;4.93;2.60;;;2.40;99.90;;;;;;5058291;28;20034;-71
2021/01/02 07:42:27;;;;;;;6.00;2.67;;;2.40;99.90;;;;;;5056484;28;20022;-71
2021/01/02 07:44:57;;;;;;;5.72;2.80;;;2.40;99.90;;;;;;5024302;28;20459;-71
2021/01/02 07:47:23;;;;;;;4.97;2.45;;;2.40;99.90;;;;;;5056203;28;20037;-71
2021/01/02 07:49:51;;;;;;;6.68;3.00;;;2.40;99.90;;;;;;5024539;28;20107;-71
2021/01/02 07:52:17;;;;;;;5.90;2.83;;;2.30;99.90;;;;;;5056638;28;20186;-71
2021/01/02 07:54:44;;;;;;;6.30;2.70;;;2.40;99.90;;;;;;5024214;28;20116;-71
2021/01/02 07:57:10;;;;;;;5.38;2.50;;;2.40;99.90;;;;;;5025181;28;20036;-71
2021/01/02 07:59:37;;;;;;;5.50;2.85;;;2.40;99.90;;;;;;5022572;28;20030;-71
2021/01/02 08:02:08;;;;;;;5.47;2.88;;;2.40;99.90;;;;;;5024182;28;20022;-71
2021/01/02 08:04:33;;;;;;;6.00;3.00;;;2.40;99.90;;;;;;5024172;28;20014;-71
2021/01/02 08:07:08;;;;;;;6.93;2.72;;;2.40;99.90;;;;;;5024071;28;20026;-71
2021/01/02 08:09:34;;;;;;;6.78;3.00;;;2.40;99.90;;;;;;5021699;28;20049;-71
2021/01/02 08:12:10;;;;;;;8.95;3.08;;;2.40;99.90;;;;;;5039316;28;20451;-71
2021/01/02 08:14:37;;;;;;;6.10;2.90;;;2.40;99.90;;;;;;5024148;28;20025;-71
2021/01/02 08:17:11;;;;;;;6.35;3.00;;;2.40;99.90;;;;;;5024367;28;20034;-71
2021/01/02 08:19:51;;;;;;;6.35;3.00;;;2.50;99.90;;;;;;5022908;28;20029;-70
2021/01/02 08:22:30;;;;;;;6.03;2.95;;;2.50;99.90;;;;;;5020171;28;20022;-70
2021/01/02 08:25:00;;;;;;;5.25;2.65;;;2.50;99.90;;;;;;5025784;28;20118;-71
2021/01/02 08:27:28;;;;;;;5.20;2.78;;;2.50;99.90;;;;;;5007100;28;20037;-71
2021/01/02 08:30:02;;;;;;;5.68;2.90;;;2.50;99.90;;;;;;5056945;28;20041;-71
2021/01/02 08:32:28;;;;;;;4.88;2.55;;;2.50;99.90;;;;;;5019284;28;20034;-71
2021/01/02 08:34:57;;;;;;;5.78;2.83;;;2.50;99.90;;;;;;5056872;28;20519;-71
2021/01/02 08:37:25;;;;;;;5.47;2.88;;;2.60;99.90;;;;;;5024029;28;20083;-70
2021/01/02 08:40:10;;;;;;;4.53;2.70;;;2.60;99.90;;;;;;5024802;28;20064;-71
2021/01/02 08:42:37;;;;;;;5.45;2.63;;;2.60;99.90;;;;;;5040274;28;20398;-71
2021/01/02 08:45:04;;;;;;;6.18;2.90;;;2.60;99.90;;;;;;5061316;28;20537;-71
2021/01/02 08:47:30;;;;;;;6.55;2.97;;;2.70;99.90;;;;;;5027980;28;20028;-71
2021/01/02 08:49:58;;;;;;;7.30;3.22;;;2.70;99.90;;;;;;5023534;28;20029;-71
2021/01/02 08:52:27;;;;;;;11.88;5.10;;;2.70;99.90;;;;;;5026466;28;20049;-71
2021/01/02 08:54:56;;;;;;;9.05;4.70;;;2.70;99.90;;;;;;5027316;28;20109;-71
2021/01/02 08:57:25;;;;;;;9.77;4.43;;;2.70;99.90;;;;;;5027605;28;20083;-71
2021/01/02 08:59:51;;;;;;;9.73;4.60;;;2.70;99.90;;;;;;5058736;28;20057;-70
2021/01/02 09:02:19;;;;;;;12.57;5.03;;;2.70;99.90;;;;;;5027024;28;20041;-71
2021/01/02 09:05:07;;;;;;;8.75;4.20;;;2.70;99.90;;;;;;5026776;28;20032;-71
2021/01/02 09:07:33;;;;;;;8.27;4.05;;;2.70;99.90;;;;;;5039385;28;20068;-71
2021/01/02 09:10:22;;;;;;;10.23;5.22;;;2.70;99.90;;;;;;5026456;28;20108;-70
2021/01/02 09:13:09;;;;;;;11.10;5.00;;;2.80;99.90;;;;;;5027873;28;20044;-71
2021/01/02 09:15:47;;;;;;;14.38;6.57;;;2.80;99.90;;;;;;5027188;28;20034;-71
2021/01/02 09:18:16;;;;;;;11.30;5.50;;;2.80;99.90;;;;;;5026869;28;20029;-71
2021/01/02 09:20:42;;;;;;;10.38;5.82;;;2.80;99.90;;;;;;5026574;28;20037;-72
2021/01/02 09:23:08;;;;;;;12.20;5.82;;;2.90;99.90;;;;;;5060536;28;20058;-71
2021/01/02 09:25:35;;;;;;;11.55;6.30;;;2.90;99.90;;;;;;5027823;28;20018;-71
2021/01/02 09:28:13;;;;;;;12.30;5.95;;;2.90;99.90;;;;;;5026178;28;20032;-70
2021/01/02 09:30:39;;;;;;;10.57;5.30;;;2.90;99.90;;;;;;5057654;28;20057;-71
2021/01/02 09:33:07;;;;;;;8.45;4.53;;;2.80;99.90;;;;;;5025860;28;20026;-71
2021/01/02 09:35:36;;;;;;;7.70;3.92;;;2.80;99.90;;;;;;5022963;28;20655;-71
2021/01/02 09:38:02;;;;;;;9.90;4.70;;;2.80;99.90;;;;;;5041333;28;20030;-71
2021/01/02 09:40:28;;;;;;;8.40;4.15;;;2.90;99.90;;;;;;5026545;28;20049;-71
2021/01/02 09:42:54;;;;;;;6.97;4.13;;;2.90;99.90;;;;;;5027295;28;20065;-70
2021/01/02 09:45:19;;;;;;;7.47;4.25;;;2.90;99.90;;;;;;5058984;28;20037;-72
2021/01/02 09:47:45;;;;;;;7.07;3.75;;;2.90;99.90;;;;;;5041259;28;20025;-71
2021/01/02 09:50:11;;;;;;;8.60;4.20;;;3.00;99.90;;;;;;5025968;28;20615;-71
2021/01/02 09:52:39;;;;;;;7.30;4.22;;;3.00;99.90;;;;;;5058740;28;20487;-71
2021/01/02 09:55:05;;;;;;;7.38;4.25;;;3.00;99.90;;;;;;5026678;28;20037;-71
2021/01/02 09:57:33;;;;;;;7.13;4.00;;;3.00;99.90;;;;;;5028146;28;20098;-71
2021/01/02 09:59:59;;;;;;;9.35;4.40;;;3.00;99.90;;;;;;5026757;28;20080;-71
2021/01/02 10:02:25;;;;;;;6.88;3.90;;;3.00;99.90;;;;;;5019187;28;20047;-71
2021/01/02 10:04:50;;;;;;;7.95;4.00;;;3.00;99.90;;;;;;5024033;28;20033;-71
2021/01/02 10:07:19;;;;;;;9.23;3.78;;;3.10;99.90;;;;;;5026797;28;20044;-71
2021/01/02 10:09:46;;;;;;;6.80;3.92;;;3.10;99.90;;;;;;5025569;28;20041;-71
2021/01/02 10:12:16;;;;;;;7.72;4.00;;;3.10;99.90;;;;;;5027038;28;20026;-71
2021/01/02 10:14:42;;;;;;;6.53;4.10;;;3.10;99.90;;;;;;5026557;28;20087;-71
2021/01/02 10:17:08;;;;;;;8.10;4.03;;;3.10;99.90;;;;;;5025488;28;20038;-71
2021/01/02 10:19:36;;;;;;;7.25;3.80;;;3.10;99.90;;;;;;5057205;28;20112;-70
2021/01/02 10:22:10;;;;;;;7.70;3.70;;;3.10;99.90;;;;;;5039190;28;20076;-71
2021/01/02 10:24:35;;;;;;;6.68;3.83;;;3.20;99.90;;;;;;5056150;28;20356;-71
2021/01/02 10:27:01;;;;;;;8.20;4.28;;;3.20;99.90;;;;;;5059283;28;20087;-71
2021/01/02 10:29:29;;;;;;;6.47;3.60;;;3.20;99.90;;;;;;5025729;28;20029;-71
2021/01/02 10:32:02;;;;;;;6.82;3.38;;;3.20;99.90;;;;;;5024790;28;20194;-71
2021/01/02 10:34:27;;;;;;;7.25;3.90;;;3.20;99.90;;;;;;5025560;28;20651;-71
2021/01/02 10:36:53;;;;;;;7.43;3.70;;;3.20;99.90;;;;;;5025396;28;20061;-71
2021/01/02 10:39:21;;;;;;;6.82;3.60;;;3.20;99.90;;;;;;5024796;28;20650;-71
2021/01/02 10:41:47;;;;;;;6.63;3.80;;;3.30;99.90;;;;;;5057873;28;20109;-72
2021/01/02 10:44:19;;;;;;;6.60;3.47;;;3.30;99.90;;;;;;5056663;28;20030;-71
2021/01/02 10:46:49;;;;;;;7.05;3.40;;;3.30;99.90;;;;;;5026398;28;20411;-71
2021/01/02 10:49:18;;;;;;;6.28;3.35;;;3.30;99.90;;;;;;5057739;28;20029;-71
2021/01/02 10:51:46;;;;;;;6.03;3.33;;;3.30;99.90;;;;;;5056855;28;20025;-72
2021/01/02 10:54:15;;;;;;;5.88;3.50;;;3.30;99.90;;;;;;5039891;28;20470;-71
2021/01/02 10:56:45;;;;;;;7.75;3.38;;;3.30;99.90;;;;;;5025010;28;20037;-71
2021/01/02 10:59:16;;;;;;;5.80;3.20;;;3.30;99.90;;;;;;5058711;28;20095;-72
2021/01/02 11:01:43;;;;;;;5.90;3.40;;;3.30;99.90;;;;;;5057574;28;20536;-71
2021/01/02 11:04:09;;;;;;;6.88;3.58;;;3.30;99.90;;;;;;5023326;28;20025;-71
2021/01/02 11:06:38;;;;;;;6.78;3.25;;;3.30;99.90;;;;;;5057158;28;20056;-71
2021/01/02 11:09:06;;;;;;;5.85;2.90;;;3.30;99.90;;;;;;5009262;28;20083;-71
2021/01/02 11:11:32;;;;;;;5.28;3.08;;;3.30;99.90;;;;;;5057369;28;20041;-72
2021/01/02 11:13:58;;;;;;;5.03;2.83;;;3.20;99.90;;;;;;5040246;28;20079;-72
2021/01/02 11:16:38;;;;;;;6.70;3.63;;;3.30;99.90;;;;;;5024164;28;20037;-72
2021/01/02 11:19:35;;;;;;;5.20;3.00;;;3.30;99.90;;;;;;5022957;28;20037;-72
2021/01/02 11:22:05;;;;;;;5.75;3.28;;;3.30;99.90;;;;;;5023206;28;20482;-71
2021/01/02 11:24:35;;;;;;;5.55;3.08;;;3.30;99.90;;;;;;5024508;28;20022;-71
2021/01/02 11:27:01;;;;;;;6.25;3.50;;;3.40;99.90;;;;;;5039888;28;20525;-72
2021/01/02 11:29:29;;;;;;;5.53;2.80;;;3.40;99.90;;;;;;5022869;28;20032;-72
2021/01/02 11:31:55;;;;;;;5.20;3.00;;;3.40;99.90;;;;;;5039356;28;20455;-72
2021/01/02 11:34:21;;;;;;;5.50;3.28;;;3.50;99.90;;;;;;5025164;28;20092;-71
2021/01/02 11:36:50;;;;;;;5.38;3.28;;;3.60;99.90;;;;;;5056654;28;20037;-72
2021/01/02 11:39:16;;;;;;;5.93;3.65;;;3.60;99.90;;;;;;5022846;28;20037;-72
2021/01/02 11:41:44;;;;;;;6.00;3.58;;;3.60;99.90;;;;;;4676223;28;9999960;-72
2021/01/02 11:44:13;;;;;;;5.45;3.25;;;3.60;99.90;;;;;;5024563;28;20068;-72
2021/01/02 11:46:46;;;;;;;5.15;2.92;;;3.60;99.90;;;;;;5007952;28;20383;-72
2021/01/02 11:49:15;;;;;;;6.00;3.35;;;3.60;99.90;;;;;;5036231;28;20081;-72
2021/01/02 11:51:41;;;;;;;5.30;3.60;;;3.70;99.90;;;;;;5024676;28;20087;-71
2021/01/02 11:54:09;;;;;;;6.72;3.85;;;3.70;99.90;;;;;;5024405;28;20022;-71
2021/01/02 11:56:37;;;;;;;6.85;3.30;;;3.70;99.90;;;;;;5022445;28;20090;-71
2021/01/02 11:59:05;;;;;;;5.38;3.20;;;3.70;99.90;;;;;;5055090;28;20187;-72
2021/01/02 12:01:58;;;;;;;5.28;3.20;;;3.70;99.90;;;;;;5023499;28;20025;-72
2021/01/02 12:04:25;;;;;;;6.30;3.47;;;3.80;99.90;;;;;;5021142;28;20045;-72
2021/01/02 12:06:51;;;;;;;5.18;3.17;;;3.70;99.90;;;;;;5035864;28;20033;-72
2021/01/02 12:09:17;;;;;;;4.88;2.70;;;3.80;99.90;;;;;;5023322;28;20366;-72
2021/01/02 12:11:45;;;;;;;5.45;2.90;;;3.80;99.90;;;;;;5056707;28;20080;-71
2021/01/02 12:14:14;;;;;;;5.50;3.20;;;3.80;99.90;;;;;;5054881;28;20033;-71
2021/01/02 12:16:41;;;;;;;6.78;3.10;;;3.80;99.90;;;;;;5027184;28;20105;-72
2021/01/02 12:19:09;;;;;;;6.63;3.47;;;3.80;99.90;;;;;;5044113;28;20781;-71
2021/01/02 12:21:36;;;;;;;6.15;3.38;;;3.90;99.90;;;;;;5044396;28;20406;-73
2021/01/02 12:24:03;;;;;;;12.68;6.72;;;3.90;99.90;;;;;;5027513;28;20026;-72
2021/01/02 12:26:28;;;;;;;8.73;5.05;;;3.90;99.90;;;;;;5027661;28;20033;-72
2021/01/02 12:28:56;;;;;;;6.95;3.95;;;3.90;99.90;;;;;;5058842;28;20041;-72
2021/01/02 12:31:26;;;;;;;6.18;3.70;;;3.90;99.90;;;;;;5028312;28;20080;-72
2021/01/02 12:33:52;;;;;;;6.03;3.28;;;3.90;99.90;;;;;;5028395;28;20029;-73
2021/01/02 12:36:29;;;;;;;5.65;2.90;;;3.90;99.90;;;;;;5058395;28;20112;-72
2021/01/02 12:39:00;;;;;;;5.78;3.00;;;3.90;99.90;;;;;;5026545;28;20107;-72
2021/01/02 12:41:25;;;;;;;5.10;3.10;;;4.00;99.90;;;;;;5028749;28;20080;-72
2021/01/02 12:43:51;;;;;;;4.80;2.90;;;4.00;99.90;;;;;;5027455;28;20459;-71
2021/01/02 12:46:17;;;;;;;4.85;3.00;;;3.90;99.90;;;;;;5028506;28;20102;-72
2021/01/02 12:48:44;;;;;;;4.97;2.80;;;3.90;99.90;;;;;;5060293;28;20029;-72
2021/01/02 12:51:10;;;;;;;5.50;3.10;;;3.90;99.90;;;;;;5027363;28;20033;-72
2021/01/02 12:53:37;;;;;;;5.50;3.25;;;3.90;99.90;;;;;;5027212;28;20063;-72
2021/01/02 12:56:05;;;;;;;5.60;3.25;;;3.90;99.90;;;;;;5059858;28;20044;-72
2021/01/02 12:58:34;;;;;;;5.88;3.40;;;3.90;99.90;;;;;;5041690;28;20032;-72
2021/01/02 13:01:02;;;;;;;5.22;2.67;;;3.90;99.90;;;;;;5027911;28;20431;-72
2021/01/02 13:03:30;;;;;;;5.68;3.00;;;3.90;99.90;;;;;;5028155;28;20041;-71
2021/01/02 13:05:55;;;;;;;4.97;2.83;;;3.80;99.90;;;;;;5027862;28;20033;-72
2021/01/02 13:08:21;;;;;;;5.63;3.00;;;3.90;99.90;;;;;;5027478;28;20029;-72
2021/01/02 13:10:46;;;;;;;5.57;3.40;;;3.80;99.90;;;;;;5028385;28;20121;-72
2021/01/02 13:13:12;;;;;;;4.97;2.80;;;3.80;99.90;;;;;;5041517;28;20093;-72
2021/01/02 13:15:40;;;;;;;5.05;3.10;;;3.80;99.90;;;;;;5040781;28;20124;-73